Time;durP1;ratioP1;P1;durP2;ratioP2;P2;SDS_P1;SDS_P2;PMS_P1;PMS_P2;Temp;Humidity;BMP_temperature;BMP_pressure;BME280_temperature;BME280_humidity;BME280_pressure;Samples;Min_cycle;Max_cycle;Signal;HPM_P1;HPM_P2
2021/04/15 00:00:08;;;;;;;6.83;2.97;;;;;;;;;;4332900;33;20612;-74
2021/04/15 00:02:34;;;;;;;8.57;3.40;;;;;;;;;;4330827;33;20515;-75
2021/04/15 00:04:59;;;;;;;5.83;3.00;;;;;;;;;;4331043;33;20193;-75
2021/04/15 00:07:24;;;;;;;7.87;3.10;;;;;;;;;;4331434;33;20156;-74
2021/04/15 00:09:50;;;;;;;8.10;3.40;;;;;;;;;;4330995;33;20156;-75
2021/04/15 00:12:15;;;;;;;6.30;3.20;;;;;;;;;;4319106;33;20156;-74
2021/04/15 00:14:40;;;;;;;9.70;3.70;;;;;;;;;;4331258;33;20222;-74
2021/04/15 00:17:05;;;;;;;10.40;3.30;;;;;;;;;;4331130;33;20167;-74
2021/04/15 00:19:31;;;;;;;10.33;3.50;;;;;;;;;;4330766;33;20555;-74
2021/04/15 00:21:56;;;;;;;8.80;3.10;;;;;;;;;;4332422;33;20143;-75
2021/04/15 00:24:21;;;;;;;7.30;3.10;;;;;;;;;;4330498;33;20199;-75
2021/04/15 00:26:46;;;;;;;6.77;3.10;;;;;;;;;;4330796;33;20218;-75
2021/04/15 00:29:11;;;;;;;9.23;3.10;;;;;;;;;;4330707;33;20191;-75
2021/04/15 00:31:37;;;;;;;9.70;3.30;;;;;;;;;;4330681;33;20159;-75
2021/04/15 00:34:02;;;;;;;6.43;3.00;;;;;;;;;;4318424;33;20171;-75
2021/04/15 00:36:27;;;;;;;6.10;3.00;;;;;;;;;;4332003;33;20140;-75
2021/04/15 00:38:54;;;;;;;10.03;2.70;;;;;;;;;;4332011;33;20135;-74
2021/04/15 00:41:20;;;;;;;7.57;2.70;;;;;;;;;;4331661;33;20148;-74
2021/04/15 00:43:46;;;;;;;9.03;3.00;;;;;;;;;;4332015;33;20135;-75
2021/04/15 00:46:11;;;;;;;7.23;2.63;;;;;;;;;;4332025;33;20619;-74
2021/04/15 00:48:39;;;;;;;5.47;2.80;;;;;;;;;;4330812;33;20189;-75
2021/04/15 00:51:11;;;;;;;8.43;2.70;;;;;;;;;;4331476;33;20605;-75
2021/04/15 00:53:44;;;;;;;4.97;2.67;;;;;;;;;;4332291;33;20289;-75
2021/04/15 00:56:11;;;;;;;6.23;2.70;;;;;;;;;;4331885;33;20439;-74
2021/04/15 00:58:37;;;;;;;3.73;2.10;;;;;;;;;;4330886;33;20166;-75
2021/04/15 01:01:02;;;;;;;4.70;2.47;;;;;;;;;;4331550;33;20170;-75
2021/04/15 01:03:27;;;;;;;9.67;2.67;;;;;;;;;;4330702;33;20271;-74
2021/04/15 01:05:52;;;;;;;6.80;2.23;;;;;;;;;;4330447;33;20160;-74
2021/04/15 01:08:18;;;;;;;7.13;2.60;;;;;;;;;;4331732;33;20131;-74
2021/04/15 01:10:45;;;;;;;6.37;2.27;;;;;;;;;;4317885;33;20206;-74
2021/04/15 01:13:29;;;;;;;6.33;2.40;;;;;;;;;;4331831;33;20211;-75
2021/04/15 01:16:00;;;;;;;7.60;2.20;;;;;;;;;;4330110;33;20182;-73
2021/04/15 01:18:29;;;;;;;5.43;2.00;;;;;;;;;;4331631;33;20569;-73
2021/04/15 01:21:16;;;;;;;8.77;3.17;;;;;;;;;;4329862;33;20585;-73
2021/04/15 01:24:00;;;;;;;4.77;2.30;;;;;;;;;;4330525;33;20223;-73
2021/04/15 01:26:38;;;;;;;4.03;2.20;;;;;;;;;;4331155;33;20132;-73
2021/04/15 01:29:03;;;;;;;4.90;2.30;;;;;;;;;;4330060;33;20160;-73
2021/04/15 01:31:47;;;;;;;6.30;2.63;;;;;;;;;;4331341;33;20462;-73
2021/04/15 01:34:19;;;;;;;10.73;2.63;;;;;;;;;;4331129;33;20245;-73
2021/04/15 01:36:46;;;;;;;7.93;2.70;;;;;;;;;;4330008;33;20205;-73
2021/04/15 01:39:15;;;;;;;5.80;2.20;;;;;;;;;;4329613;33;20652;-73
2021/04/15 01:42:07;;;;;;;8.23;2.60;;;;;;;;;;4331175;33;20132;-74
2021/04/15 01:44:47;;;;;;;8.80;2.70;;;;;;;;;;4327355;33;20163;-73
2021/04/15 01:47:14;;;;;;;7.50;2.23;;;;;;;;;;4324966;33;20647;-73
2021/04/15 01:49:40;;;;;;;8.63;2.10;;;;;;;;;;4332218;33;20623;-73
2021/04/15 01:52:08;;;;;;;4.90;2.40;;;;;;;;;;4331984;33;20159;-74
2021/04/15 01:54:35;;;;;;;4.33;2.40;;;;;;;;;;4346225;33;20177;-73
2021/04/15 01:57:05;;;;;;;4.40;2.30;;;;;;;;;;4344746;33;20128;-74
2021/04/15 01:59:33;;;;;;;5.17;2.10;;;;;;;;;;4317498;33;20554;-73
2021/04/15 02:02:02;;;;;;;4.50;2.33;;;;;;;;;;4330431;33;20237;-74
2021/04/15 02:04:29;;;;;;;7.47;3.03;;;;;;;;;;4329155;33;20178;-73
2021/04/15 02:06:59;;;;;;;7.20;2.50;;;;;;;;;;4329197;33;20186;-73
2021/04/15 02:09:25;;;;;;;8.90;2.60;;;;;;;;;;4329525;33;20568;-74
2021/04/15 02:12:03;;;;;;;7.73;2.57;;;;;;;;;;4330646;33;20159;-73
2021/04/15 02:14:29;;;;;;;8.80;3.00;;;;;;;;;;4330716;33;20131;-73
2021/04/15 02:16:55;;;;;;;10.03;2.83;;;;;;;;;;4329361;33;20222;-73
2021/04/15 02:19:28;;;;;;;8.20;3.03;;;;;;;;;;4330884;33;20533;-73
2021/04/15 02:22:00;;;;;;;7.60;3.10;;;;;;;;;;4329502;33;20167;-73
2021/04/15 02:24:25;;;;;;;8.67;3.07;;;;;;;;;;4330812;33;20605;-74
2021/04/15 02:26:53;;;;;;;7.00;2.90;;;;;;;;;;4329182;33;20324;-73
2021/04/15 02:29:23;;;;;;;10.43;3.23;;;;;;;;;;4329653;33;20159;-73
2021/04/15 02:31:53;;;;;;;9.53;3.03;;;;;;;;;;4329668;33;20158;-73
2021/04/15 02:34:20;;;;;;;9.03;3.30;;;;;;;;;;4330305;33;20201;-73
2021/04/15 02:36:49;;;;;;;10.20;3.17;;;;;;;;;;4330938;33;20246;-74
2021/04/15 02:39:17;;;;;;;9.93;3.57;;;;;;;;;;4329701;33;20176;-74
2021/04/15 02:41:45;;;;;;;13.30;3.80;;;;;;;;;;4330010;33;20206;-73
2021/04/15 02:44:17;;;;;;;11.07;3.43;;;;;;;;;;4330239;33;20146;-73
2021/04/15 02:46:45;;;;;;;13.03;3.57;;;;;;;;;;4329584;33;20151;-74
2021/04/15 02:49:12;;;;;;;10.20;3.63;;;;;;;;;;4329070;33;20159;-74
2021/04/15 02:51:40;;;;;;;9.03;3.67;;;;;;;;;;4328902;33;20186;-74
2021/04/15 02:54:09;;;;;;;8.87;4.00;;;;;;;;;;4330214;33;20128;-74
2021/04/15 02:56:42;;;;;;;9.07;3.60;;;;;;;;;;4328995;33;20182;-74
2021/04/15 02:59:14;;;;;;;11.57;3.80;;;;;;;;;;4330760;33;20139;-74
2021/04/15 03:01:42;;;;;;;8.47;3.23;;;;;;;;;;4331234;33;20139;-74
2021/04/15 03:04:12;;;;;;;9.00;3.43;;;;;;;;;;4330049;33;20616;-74
2021/04/15 03:06:37;;;;;;;11.17;3.70;;;;;;;;;;4330543;33;20172;-74
2021/04/15 03:09:04;;;;;;;9.97;3.60;;;;;;;;;;4328692;33;20238;-74
2021/04/15 03:11:39;;;;;;;7.57;3.87;;;;;;;;;;4330074;33;20258;-73
2021/04/15 03:14:07;;;;;;;11.13;3.40;;;;;;;;;;4328952;33;20162;-73
2021/04/15 03:16:34;;;;;;;11.60;3.77;;;;;;;;;;4316596;33;20259;-73
2021/04/15 03:19:09;;;;;;;12.17;3.83;;;;;;;;;;4329252;33;20163;-73
2021/04/15 03:21:44;;;;;;;12.60;3.93;;;;;;;;;;4329269;33;20643;-73
2021/04/15 03:24:13;;;;;;;12.23;4.03;;;;;;;;;;4328965;33;20163;-73
2021/04/15 03:26:46;;;;;;;8.73;3.53;;;;;;;;;;4330507;33;20132;-74
2021/04/15 03:29:17;;;;;;;7.87;3.40;;;;;;;;;;4330812;33;20128;-73
2021/04/15 03:31:44;;;;;;;7.17;3.20;;;;;;;;;;4329751;33;20528;-74
2021/04/15 03:34:29;;;;;;;10.13;3.83;;;;;;;;;;4328826;33;20163;-73
2021/04/15 03:36:57;;;;;;;10.83;3.10;;;;;;;;;;4329718;33;20237;-75
2021/04/15 03:39:31;;;;;;;9.67;3.87;;;;;;;;;;4331383;33;20620;-75
2021/04/15 03:42:01;;;;;;;11.20;3.17;;;;;;;;;;4331366;33;20238;-75
2021/04/15 03:44:35;;;;;;;9.77;3.30;;;;;;;;;;4344242;33;20192;-73
2021/04/15 03:47:18;;;;;;;8.53;3.00;;;;;;;;;;4332819;33;20124;-73
2021/04/15 03:49:50;;;;;;;6.73;3.57;;;;;;;;;;4332930;33;20128;-76
2021/04/15 03:52:19;;;;;;;5.87;2.90;;;;;;;;;;4331165;33;20156;-76
2021/04/15 03:54:48;;;;;;;8.97;3.13;;;;;;;;;;4333111;33;20128;-75
2021/04/15 03:57:17;;;;;;;8.93;3.90;;;;;;;;;;4343543;33;20152;-74
2021/04/15 03:59:45;;;;;;;9.20;3.50;;;;;;;;;;4331515;33;20471;-74
2021/04/15 04:02:26;;;;;;;13.93;3.87;;;;;;;;;;4331329;33;20178;-74
2021/04/15 04:04:54;;;;;;;11.20;4.57;;;;;;;;;;4343170;33;20221;-74
2021/04/15 04:07:24;;;;;;;10.07;3.37;;;;;;;;;;4330952;33;20661;-73
2021/04/15 04:09:59;;;;;;;6.83;3.00;;;;;;;;;;4332258;33;20131;-73
2021/04/15 04:12:28;;;;;;;7.43;3.60;;;;;;;;;;4319266;33;20159;-75
2021/04/15 04:14:59;;;;;;;8.03;3.20;;;;;;;;;;4330803;33;20170;-75
2021/04/15 04:17:32;;;;;;;7.67;3.30;;;;;;;;;;4330752;33;20160;-73
2021/04/15 04:19:57;;;;;;;9.93;3.90;;;;;;;;;;4332276;33;20154;-75
2021/04/15 04:22:36;;;;;;;8.37;3.87;;;;;;;;;;4331311;33;20471;-74
2021/04/15 04:25:04;;;;;;;12.47;4.13;;;;;;;;;;4332451;33;20529;-74
2021/04/15 04:27:39;;;;;;;10.20;4.10;;;;;;;;;;4330667;33;20178;-75
2021/04/15 04:30:07;;;;;;;10.30;4.40;;;;;;;;;;4331944;33;20135;-73
2021/04/15 04:32:33;;;;;;;12.43;3.70;;;;;;;;;;4325705;33;20281;-75
2021/04/15 04:34:59;;;;;;;7.60;4.17;;;;;;;;;;4346426;33;20572;-74
2021/04/15 04:37:35;;;;;;;7.33;3.80;;;;;;;;;;4333223;33;20163;-75
2021/04/15 04:40:10;;;;;;;11.17;4.50;;;;;;;;;;4332603;33;20174;-74
2021/04/15 04:42:39;;;;;;;8.87;3.90;;;;;;;;;;4331971;33;20166;-74
2021/04/15 04:45:04;;;;;;;14.20;4.23;;;;;;;;;;4330629;33;20158;-73
2021/04/15 04:47:56;;;;;;;11.97;5.13;;;;;;;;;;4330496;33;20178;-73
2021/04/15 04:50:21;;;;;;;10.87;4.30;;;;;;;;;;4319787;33;20179;-73
2021/04/15 04:52:47;;;;;;;12.90;4.63;;;;;;;;;;4331020;33;20163;-74
2021/04/15 04:55:22;;;;;;;15.47;4.77;;;;;;;;;;4318099;33;20186;-75
2021/04/15 04:57:48;;;;;;;8.10;3.80;;;;;;;;;;4330514;33;20181;-73
2021/04/15 05:00:16;;;;;;;9.33;4.20;;;;;;;;;;4330843;33;20470;-74
2021/04/15 05:02:41;;;;;;;10.53;4.13;;;;;;;;;;4331083;33;20151;-75
2021/04/15 05:05:12;;;;;;;10.37;3.83;;;;;;;;;;4330420;33;20186;-74
2021/04/15 05:07:37;;;;;;;13.23;4.27;;;;;;;;;;4330460;33;20206;-75
2021/04/15 05:10:03;;;;;;;8.63;4.33;;;;;;;;;;4330414;33;20577;-74
2021/04/15 05:12:30;;;;;;;15.00;4.70;;;;;;;;;;4329758;33;20148;-74
2021/04/15 05:14:56;;;;;;;7.87;4.03;;;;;;;;;;4330354;33;20189;-72
2021/04/15 05:17:27;;;;;;;10.23;4.07;;;;;;;;;;4331298;33;20151;-74
2021/04/15 05:19:53;;;;;;;8.47;4.20;;;;;;;;;;4330031;33;20318;-73
2021/04/15 05:22:25;;;;;;;9.97;4.30;;;;;;;;;;4329783;33;20159;-75
2021/04/15 05:24:54;;;;;;;11.67;4.20;;;;;;;;;;4329692;33;20170;-72
2021/04/15 05:27:20;;;;;;;13.43;3.77;;;;;;;;;;4331489;33;20167;-74
2021/04/15 05:29:47;;;;;;;8.40;3.50;;;;;;;;;;4327460;33;21072;-74
2021/04/15 05:32:14;;;;;;;12.73;4.20;;;;;;;;;;4330469;33;20242;-74
2021/04/15 05:34:41;;;;;;;9.23;4.00;;;;;;;;;;4329204;33;20155;-74
2021/04/15 05:37:14;;;;;;;9.00;3.33;;;;;;;;;;4329972;33;20188;-74
2021/04/15 05:39:39;;;;;;;6.87;3.67;;;;;;;;;;4330729;33;20140;-74
2021/04/15 05:42:17;;;;;;;13.10;3.93;;;;;;;;;;4329848;33;20218;-74
2021/04/15 05:44:43;;;;;;;10.23;4.13;;;;;;;;;;4330491;33;20288;-74
2021/04/15 05:47:22;;;;;;;8.70;3.60;;;;;;;;;;4330779;33;20175;-74
2021/04/15 05:49:52;;;;;;;7.70;3.30;;;;;;;;;;4329143;33;20226;-74
2021/04/15 05:52:20;;;;;;;7.90;3.60;;;;;;;;;;4329986;33;20214;-74
2021/04/15 05:54:46;;;;;;;9.33;3.97;;;;;;;;;;4329282;33;20187;-74
2021/04/15 05:57:13;;;;;;;10.47;4.37;;;;;;;;;;4329091;33;20534;-73
2021/04/15 05:59:38;;;;;;;8.20;3.73;;;;;;;;;;4330826;33;20174;-74
2021/04/15 06:02:07;;;;;;;6.67;3.63;;;;;;;;;;4330691;33;20140;-75
2021/04/15 06:04:35;;;;;;;9.13;3.60;;;;;;;;;;4329137;33;20234;-73
2021/04/15 06:07:03;;;;;;;6.53;3.00;;;;;;;;;;4330544;33;20132;-73
2021/04/15 06:09:28;;;;;;;9.43;3.83;;;;;;;;;;4329745;33;20182;-73
2021/04/15 06:12:03;;;;;;;7.23;3.37;;;;;;;;;;4330164;33;20481;-73
2021/04/15 06:14:31;;;;;;;12.60;3.60;;;;;;;;;;4328997;33;20159;-74
2021/04/15 06:17:15;;;;;;;9.17;3.10;;;;;;;;;;4330695;33;20124;-74
2021/04/15 06:19:43;;;;;;;13.13;3.70;;;;;;;;;;4326633;33;20140;-73
2021/04/15 06:22:11;;;;;;;13.33;4.17;;;;;;;;;;4328306;33;20172;-70
2021/04/15 06:24:37;;;;;;;11.53;3.63;;;;;;;;;;4316232;33;20182;-73
2021/04/15 06:27:05;;;;;;;12.33;4.27;;;;;;;;;;4329532;33;20148;-74
2021/04/15 06:29:40;;;;;;;8.43;4.00;;;;;;;;;;4329217;33;20155;-74
2021/04/15 06:32:07;;;;;;;6.77;3.30;;;;;;;;;;4328362;33;20164;-71
2021/04/15 06:34:32;;;;;;;9.70;3.53;;;;;;;;;;4316437;33;20270;-72
2021/04/15 06:36:57;;;;;;;8.10;3.20;;;;;;;;;;4328816;33;20517;-75
2021/04/15 06:39:29;;;;;;;8.97;3.40;;;;;;;;;;4328779;33;20152;-73
2021/04/15 06:41:58;;;;;;;13.13;4.17;;;;;;;;;;4328440;33;20168;-73
2021/04/15 06:44:43;;;;;;;8.07;3.33;;;;;;;;;;4328199;33;20250;-74
2021/04/15 06:47:27;;;;;;;14.80;3.90;;;;;;;;;;4316140;33;20202;-74
2021/04/15 06:50:12;;;;;;;11.40;3.80;;;;;;;;;;4328899;33;20160;-80
2021/04/15 06:52:49;;;;;;;8.93;3.77;;;;;;;;;;4325802;33;20169;-74
2021/04/15 06:55:22;;;;;;;11.60;3.67;;;;;;;;;;4324001;33;20201;-74
2021/04/15 06:58:06;;;;;;;10.03;3.33;;;;;;;;;;4325326;33;20152;-73
2021/04/15 07:00:50;;;;;;;12.23;3.77;;;;;;;;;;4329192;33;20526;-72
2021/04/15 07:03:34;;;;;;;5.53;3.07;;;;;;;;;;4314458;33;20196;-73
2021/04/15 07:06:19;;;;;;;11.43;3.60;;;;;;;;;;4317671;33;20136;-72
2021/04/15 07:08:47;;;;;;;8.80;3.73;;;;;;;;;;4328333;33;20139;-73
2021/04/15 07:11:26;;;;;;;8.83;3.00;;;;;;;;;;4329351;33;20218;-72
2021/04/15 07:14:10;;;;;;;17.87;3.80;;;;;;;;;;4330831;33;20182;-70
2021/04/15 07:16:54;;;;;;;9.03;3.83;;;;;;;;;;4330567;33;20213;-72
2021/04/15 07:19:35;;;;;;;11.20;3.60;;;;;;;;;;4326938;33;20140;-74
2021/04/15 07:22:18;;;;;;;11.37;4.10;;;;;;;;;;4330504;33;20163;-73
2021/04/15 07:24:59;;;;;;;7.63;3.90;;;;;;;;;;4330537;33;20218;-73
2021/04/15 07:27:34;;;;;;;16.10;4.20;;;;;;;;;;4331504;33;20242;-72
2021/04/15 07:30:11;;;;;;;11.07;3.30;;;;;;;;;;4329870;33;20175;-73
2021/04/15 07:32:39;;;;;;;9.20;3.70;;;;;;;;;;4328548;33;20170;-73
2021/04/15 07:35:04;;;;;;;9.57;3.90;;;;;;;;;;4330011;33;20160;-73
2021/04/15 07:37:39;;;;;;;7.40;3.17;;;;;;;;;;4329897;33;20222;-70
2021/04/15 07:40:04;;;;;;;5.77;2.30;;;;;;;;;;4330236;33;20577;-72
2021/04/15 07:42:29;;;;;;;5.70;2.30;;;;;;;;;;4331687;33;20210;-74
2021/04/15 07:44:58;;;;;;;3.93;1.90;;;;;;;;;;4331070;33;20673;-73
2021/04/15 07:47:42;;;;;;;4.23;1.50;;;;;;;;;;4331280;33;20256;-71
2021/04/15 07:50:14;;;;;;;2.97;1.37;;;;;;;;;;4328121;33;20144;-72
2021/04/15 07:52:57;;;;;;;4.73;1.20;;;;;;;;;;4330738;33;20147;-72
2021/04/15 07:55:41;;;;;;;4.60;1.20;;;;;;;;;;4330352;33;20581;-73
2021/04/15 07:58:06;;;;;;;2.73;1.20;;;;;;;;;;4325738;33;20569;-73
2021/04/15 08:00:41;;;;;;;4.33;1.00;;;;;;;;;;4328488;33;20171;-73
2021/04/15 08:03:28;;;;;;;3.23;2.17;;;;;;;;;;4330514;33;20136;-73
2021/04/15 08:06:02;;;;;;;3.90;1.03;;;;;;;;;;4331158;33;20171;-73
2021/04/15 08:08:45;;;;;;;2.13;1.03;;;;;;;;;;4329409;33;20183;-73
2021/04/15 08:11:22;;;;;;;2.40;1.10;;;;;;;;;;4331926;33;20135;-71
2021/04/15 08:13:56;;;;;;;3.73;1.30;;;;;;;;;;4330685;33;20167;-72
2021/04/15 08:16:32;;;;;;;4.70;1.10;;;;;;;;;;4317589;33;20590;-73
2021/04/15 08:19:30;;;;;;;4.67;1.17;;;;;;;;;;4330612;33;20195;-73
2021/04/15 08:22:10;;;;;;;4.47;1.40;;;;;;;;;;4317754;33;20159;-70
2021/04/15 08:24:48;;;;;;;3.07;1.20;;;;;;;;;;4324706;33;20132;-73
2021/04/15 08:27:19;;;;;;;3.33;1.40;;;;;;;;;;4330718;33;20174;-71
2021/04/15 08:29:53;;;;;;;2.57;1.37;;;;;;;;;;4328727;33;20190;-72
2021/04/15 08:32:40;;;;;;;5.43;1.50;;;;;;;;;;4328758;33;20139;-70
2021/04/15 08:35:20;;;;;;;6.03;1.60;;;;;;;;;;4330109;33;20151;-73
2021/04/15 08:38:12;;;;;;;3.67;1.53;;;;;;;;;;4330274;33;20166;-74
2021/04/15 08:40:37;;;;;;;3.40;1.60;;;;;;;;;;4330793;33;20144;-73
2021/04/15 08:43:02;;;;;;;6.23;2.03;;;;;;;;;;4330172;33;20202;-71
2021/04/15 08:45:36;;;;;;;4.50;2.30;;;;;;;;;;4330150;33;20140;-72
2021/04/15 08:48:08;;;;;;;5.97;1.90;;;;;;;;;;4330446;33;20604;-74
2021/04/15 08:50:39;;;;;;;4.80;2.00;;;;;;;;;;4328967;33;20144;-74
2021/04/15 08:53:16;;;;;;;7.70;2.17;;;;;;;;;;4329978;33;20151;-73
2021/04/15 08:55:47;;;;;;;6.77;2.00;;;;;;;;;;4330576;33;20148;-72
2021/04/15 08:58:30;;;;;;;6.37;2.20;;;;;;;;;;4329077;33;20203;-73
2021/04/15 09:01:02;;;;;;;5.40;2.20;;;;;;;;;;4330261;33;20203;-71
2021/04/15 09:03:27;;;;;;;8.47;2.63;;;;;;;;;;4330436;33;20487;-72
2021/04/15 09:05:59;;;;;;;3.57;1.93;;;;;;;;;;4329520;33;20186;-73
2021/04/15 09:08:30;;;;;;;5.63;2.10;;;;;;;;;;4329964;33;20183;-73
2021/04/15 09:11:30;;;;;;;2.27;1.53;;;;;;;;;;4330375;33;20145;-74
2021/04/15 09:14:00;;;;;;;5.20;1.60;;;;;;;;;;4280874;33;20556;-73
2021/04/15 09:16:39;;;;;;;3.27;1.77;;;;;;;;;;4321959;33;20235;-71
2021/04/15 09:19:11;;;;;;;4.10;1.27;;;;;;;;;;4317905;33;20159;-72
2021/04/15 09:21:36;;;;;;;2.33;1.20;;;;;;;;;;4327516;33;20182;-74
2021/04/15 09:24:20;;;;;;;3.83;1.30;;;;;;;;;;4316487;33;20203;-71
2021/04/15 09:27:04;;;;;;;2.13;0.90;;;;;;;;;;4313042;33;20164;-69
2021/04/15 09:29:29;;;;;;;2.97;1.20;;;;;;;;;;4329315;33;20195;-71
2021/04/15 09:32:02;;;;;;;3.87;1.17;;;;;;;;;;4316287;33;20156;-66
2021/04/15 09:34:42;;;;;;;5.73;1.53;;;;;;;;;;4329790;33;20183;-70
2021/04/15 09:37:26;;;;;;;2.77;1.57;;;;;;;;;;4328883;33;20160;-72
2021/04/15 09:39:57;;;;;;;3.67;1.90;;;;;;;;;;4330595;33;20178;-70
2021/04/15 09:42:40;;;;;;;3.33;1.30;;;;;;;;;;4330302;33;20628;-69
2021/04/15 09:45:21;;;;;;;4.10;1.70;;;;;;;;;;4327933;33;20171;-69
2021/04/15 09:48:06;;;;;;;3.50;1.40;;;;;;;;;;4321207;33;20147;-71
2021/04/15 09:50:35;;;;;;;6.00;2.10;;;;;;;;;;4327132;33;20570;-70
2021/04/15 09:53:02;;;;;;;6.23;2.30;;;;;;;;;;4324019;33;20152;-68
2021/04/15 09:55:32;;;;;;;3.63;1.80;;;;;;;;;;4327175;33;20156;-75
2021/04/15 09:58:17;;;;;;;3.00;1.40;;;;;;;;;;4327188;33;20222;-70
2021/04/15 10:00:47;;;;;;;2.30;1.37;;;;;;;;;;4313635;33;20628;-71
2021/04/15 10:03:18;;;;;;;2.57;1.50;;;;;;;;;;4326981;33;20226;-71
2021/04/15 10:06:03;;;;;;;2.00;1.40;;;;;;;;;;4329814;33;20162;-69
2021/04/15 10:08:32;;;;;;;2.03;1.37;;;;;;;;;;4324188;33;20211;-71
2021/04/15 10:11:09;;;;;;;1.40;1.10;;;;;;;;;;4323226;33;20719;-71
2021/04/15 10:13:43;;;;;;;1.33;1.13;;;;;;;;;;4330104;33;20156;-70
2021/04/15 10:16:28;;;;;;;3.70;1.50;;;;;;;;;;4328649;33;20223;-67
2021/04/15 10:19:17;;;;;;;3.45;1.60;;;;;;;;;;4324481;33;20791;-70
2021/04/15 10:21:56;;;;;;;1.52;1.27;;;;;;;;;;4327653;33;20503;-71
2021/04/15 10:24:26;;;;;;;3.20;1.80;;;;;;;;;;4324797;33;20163;-70
2021/04/15 10:27:10;;;;;;;3.07;1.77;;;;;;;;;;4328003;33;20152;-69
2021/04/15 10:29:50;;;;;;;3.80;1.63;;;;;;;;;;4328177;33;20626;-71
2021/04/15 10:32:32;;;;;;;4.27;1.77;;;;;;;;;;4328905;33;20170;-69
2021/04/15 10:35:14;;;;;;;2.08;1.60;;;;;;;;;;4326189;33;20182;-70
2021/04/15 10:38:03;;;;;;;2.33;1.43;;;;;;;;;;4314627;33;20148;-69
2021/04/15 10:40:48;;;;;;;2.37;1.20;;;;;;;;;;4326310;33;20227;-67
2021/04/15 10:43:31;;;;;;;2.30;1.33;;;;;;;;;;4327640;33;20166;-70
2021/04/15 10:46:06;;;;;;;2.37;1.30;;;;;;;;;;4328080;33;20152;-70
2021/04/15 10:48:36;;;;;;;2.23;1.60;;;;;;;;;;4332371;33;20144;-71
2021/04/15 10:51:07;;;;;;;2.90;1.60;;;;;;;;;;4331744;33;20159;-68
2021/04/15 10:53:41;;;;;;;2.47;1.60;;;;;;;;;;4331199;33;20159;-71
2021/04/15 10:56:08;;;;;;;2.37;1.40;;;;;;;;;;4331853;33;20530;-69
2021/04/15 10:58:34;;;;;;;1.50;1.30;;;;;;;;;;4332145;33;20140;-70
2021/04/15 11:01:17;;;;;;;3.10;1.17;;;;;;;;;;4332667;33;20205;-67
2021/04/15 11:03:43;;;;;;;3.10;1.30;;;;;;;;;;4333010;33;20182;-69
2021/04/15 11:06:11;;;;;;;1.27;1.03;;;;;;;;;;4332171;33;20124;-69
2021/04/15 11:08:36;;;;;;;1.30;1.20;;;;;;;;;;4332450;33;20132;-68
2021/04/15 11:11:09;;;;;;;1.37;1.20;;;;;;;;;;4332453;33;20186;-72
2021/04/15 11:13:34;;;;;;;2.37;1.40;;;;;;;;;;4330867;33;20174;-68
2021/04/15 11:16:01;;;;;;;1.40;1.20;;;;;;;;;;4329862;33;20163;-70
2021/04/15 11:18:37;;;;;;;3.00;1.67;;;;;;;;;;4330662;33;20186;-70
2021/04/15 11:21:12;;;;;;;1.58;1.48;;;;;;;;;;4331869;33;20186;-70
2021/04/15 11:23:40;;;;;;;2.95;1.40;;;;;;;;;;4328486;33;20511;-70
2021/04/15 11:26:10;;;;;;;2.67;1.20;;;;;;;;;;4332838;33;20144;-69
2021/04/15 11:28:36;;;;;;;2.47;1.33;;;;;;;;;;4332035;33;20148;-70
2021/04/15 11:31:10;;;;;;;2.00;1.30;;;;;;;;;;4332466;33;20474;-70
2021/04/15 11:33:53;;;;;;;2.25;1.50;;;;;;;;;;4331888;33;20143;-70
2021/04/15 11:36:26;;;;;;;2.10;1.30;;;;;;;;;;4311255;33;20578;-71
2021/04/15 11:39:06;;;;;;;1.65;1.17;;;;;;;;;;4314922;33;20349;-67
2021/04/15 11:41:33;;;;;;;3.50;1.48;;;;;;;;;;4316621;33;20173;-72
2021/04/15 11:44:04;;;;;;;1.95;1.20;;;;;;;;;;4319477;33;20692;-70
2021/04/15 11:46:48;;;;;;;1.20;1.10;;;;;;;;;;4312164;33;20163;-72
2021/04/15 11:49:16;;;;;;;2.78;1.48;;;;;;;;;;4321577;33;20242;-71
2021/04/15 11:51:54;;;;;;;2.22;1.35;;;;;;;;;;4315576;33;20155;-68
2021/04/15 11:54:30;;;;;;;2.42;1.50;;;;;;;;;;4331684;33;20600;-72
2021/04/15 11:56:56;;;;;;;1.62;1.20;;;;;;;;;;4330695;33;20140;-70
2021/04/15 11:59:23;;;;;;;1.70;1.42;;;;;;;;;;4329285;33;20132;-72
2021/04/15 12:01:49;;;;;;;3.42;1.67;;;;;;;;;;4327994;33;20258;-72
2021/04/15 12:04:22;;;;;;;3.28;1.45;;;;;;;;;;4330522;33;20510;-70
2021/04/15 12:06:49;;;;;;;1.58;1.30;;;;;;;;;;4330848;33;20163;-67
2021/04/15 12:09:17;;;;;;;2.53;1.20;;;;;;;;;;4320750;33;20152;-67
2021/04/15 12:11:58;;;;;;;2.75;1.40;;;;;;;;;;4316225;33;20160;-68
2021/04/15 12:14:24;;;;;;;5.95;1.95;;;;;;;;;;4316676;33;20251;-70
2021/04/15 12:16:53;;;;;;;3.65;1.40;;;;;;;;;;4317798;33;20133;-68
2021/04/15 12:19:24;;;;;;;2.97;1.40;;;;;;;;;;4326638;33;20160;-69
2021/04/15 12:21:53;;;;;;;1.90;1.60;;;;;;;;;;4331453;33;20160;-69
2021/04/15 12:24:28;;;;;;;1.37;1.10;;;;;;;;;;4317283;33;20187;-72
2021/04/15 12:27:15;;;;;;;2.80;1.17;;;;;;;;;;4330558;33;20250;-68
2021/04/15 12:29:42;;;;;;;5.90;1.30;;;;;;;;;;4330246;33;20166;-68
2021/04/15 12:32:24;;;;;;;1.30;0.80;;;;;;;;;;4331220;33;20143;-71
2021/04/15 12:34:59;;;;;;;2.33;0.98;;;;;;;;;;4331295;33;20254;-68
2021/04/15 12:37:27;;;;;;;4.80;1.87;;;;;;;;;;4330955;33;20325;-69
2021/04/15 12:40:02;;;;;;;3.97;1.98;;;;;;;;;;4330577;33;20238;-73
2021/04/15 12:42:28;;;;;;;3.08;2.10;;;;;;;;;;4330347;33;20143;-70
2021/04/15 12:44:59;;;;;;;6.18;2.30;;;;;;;;;;4330089;33;20136;-71
2021/04/15 12:47:25;;;;;;;3.75;2.00;;;;;;;;;;4330940;33;20531;-69
2021/04/15 12:49:50;;;;;;;8.65;2.37;;;;;;;;;;4330311;33;20135;-69
2021/04/15 12:52:21;;;;;;;7.72;2.45;;;;;;;;;;4327647;33;20198;-71
2021/04/15 12:54:47;;;;;;;6.93;2.50;;;;;;;;;;4329432;33;20144;-71
2021/04/15 12:57:13;;;;;;;7.10;2.95;;;;;;;;;;4328395;33;20315;-67
2021/04/15 12:59:43;;;;;;;10.43;2.40;;;;;;;;;;4330447;33;20210;-68
2021/04/15 13:02:27;;;;;;;5.53;2.17;;;;;;;;;;4329859;33;20156;-71
2021/04/15 13:04:54;;;;;;;5.97;2.40;;;;;;;;;;4326194;33;20169;-65
2021/04/15 13:07:22;;;;;;;4.28;2.50;;;;;;;;;;4316142;33;20245;-67
2021/04/15 13:09:52;;;;;;;3.40;2.33;;;;;;;;;;4330555;33;20128;-70
2021/04/15 13:12:20;;;;;;;4.73;2.50;;;;;;;;;;4328327;33;20706;-68
2021/04/15 13:14:45;;;;;;;6.73;2.47;;;;;;;;;;4330250;33;20213;-69
2021/04/15 13:17:12;;;;;;;3.53;2.17;;;;;;;;;;4325331;33;20562;-69
2021/04/15 13:19:39;;;;;;;5.53;2.40;;;;;;;;;;4328990;33;20176;-66
2021/04/15 13:22:16;;;;;;;4.43;2.57;;;;;;;;;;4327228;33;20159;-71
2021/04/15 13:24:44;;;;;;;2.65;2.20;;;;;;;;;;4329250;33;20147;-71
2021/04/15 13:27:29;;;;;;;6.22;2.17;;;;;;;;;;4328326;33;20158;-71
2021/04/15 13:30:08;;;;;;;3.55;2.15;;;;;;;;;;4329720;33;20216;-68
2021/04/15 13:32:52;;;;;;;5.15;2.30;;;;;;;;;;4326150;33;20754;-68
2021/04/15 13:35:20;;;;;;;2.37;2.00;;;;;;;;;;4321873;33;20221;-66
2021/04/15 13:37:46;;;;;;;5.30;2.28;;;;;;;;;;4329930;33;20148;-71
2021/04/15 13:40:16;;;;;;;5.25;2.17;;;;;;;;;;4328023;33;20619;-70
2021/04/15 13:42:41;;;;;;;3.83;2.00;;;;;;;;;;4330314;33;20604;-65
2021/04/15 13:45:10;;;;;;;3.58;2.08;;;;;;;;;;4330559;33;20170;-68
2021/04/15 13:47:44;;;;;;;3.87;2.22;;;;;;;;;;4329275;33;20136;-71
2021/04/15 13:50:10;;;;;;;3.22;2.08;;;;;;;;;;4329382;33;20202;-69
2021/04/15 13:52:37;;;;;;;5.60;2.10;;;;;;;;;;4329820;33;20136;-70
2021/04/15 13:55:21;;;;;;;3.00;2.00;;;;;;;;;;4329610;33;20637;-71
2021/04/15 13:57:46;;;;;;;2.95;2.10;;;;;;;;;;4329274;33;20214;-70
2021/04/15 14:00:13;;;;;;;2.17;1.75;;;;;;;;;;4328571;33;20175;-71
2021/04/15 14:02:43;;;;;;;2.28;1.70;;;;;;;;;;4330116;33;20136;-70
2021/04/15 14:05:39;;;;;;;4.90;1.90;;;;;;;;;;4315091;33;20186;-71
2021/04/15 14:08:15;;;;;;;2.40;1.70;;;;;;;;;;4306776;33;20191;-71
2021/04/15 14:10:40;;;;;;;4.37;1.98;;;;;;;;;;4328951;33;20170;-70
2021/04/15 14:13:20;;;;;;;6.18;2.20;;;;;;;;;;4328563;33;20152;-67
2021/04/15 14:15:48;;;;;;;3.33;1.77;;;;;;;;;;4329341;33;20606;-69
2021/04/15 14:18:52;;;;;;;5.45;1.90;;;;;;;;;;4328959;33;20206;-68
2021/04/15 14:21:20;;;;;;;2.55;1.87;;;;;;;;;;4308025;33;20183;-69
2021/04/15 14:23:51;;;;;;;2.75;1.80;;;;;;;;;;4312504;33;20250;-71
2021/04/15 14:26:31;;;;;;;4.50;2.10;;;;;;;;;;4318732;33;20577;-69
2021/04/15 14:29:11;;;;;;;3.95;2.50;;;;;;;;;;4329740;33;20190;-68
2021/04/15 14:31:38;;;;;;;3.97;2.12;;;;;;;;;;4330344;33;20530;-71
2021/04/15 14:34:14;;;;;;;4.37;2.37;;;;;;;;;;4329459;33;20175;-69
2021/04/15 14:36:39;;;;;;;5.00;2.65;;;;;;;;;;4329483;33;20143;-70
2021/04/15 14:39:17;;;;;;;4.53;2.22;;;;;;;;;;4329751;33;20609;-67
2021/04/15 14:41:50;;;;;;;4.62;2.42;;;;;;;;;;4321769;33;20189;-69
2021/04/15 14:44:17;;;;;;;3.83;2.28;;;;;;;;;;4324034;33;20653;-70
2021/04/15 14:46:43;;;;;;;3.85;2.30;;;;;;;;;;4328903;33;20178;-69
2021/04/15 14:49:09;;;;;;;3.35;2.20;;;;;;;;;;4319419;33;20186;-72
2021/04/15 14:51:34;;;;;;;4.47;2.40;;;;;;;;;;4321002;33;20152;-71
2021/04/15 14:54:15;;;;;;;3.97;1.90;;;;;;;;;;4328604;33;20182;-69
2021/04/15 14:56:41;;;;;;;4.53;2.30;;;;;;;;;;4328511;33;20140;-69
2021/04/15 14:59:08;;;;;;;6.28;1.95;;;;;;;;;;4328785;33;20705;-71
2021/04/15 15:01:35;;;;;;;5.62;2.33;;;;;;;;;;4328632;33;21305;-69
2021/04/15 15:04:15;;;;;;;4.55;2.08;;;;;;;;;;4329002;33;20153;-69
2021/04/15 15:06:44;;;;;;;3.50;2.00;;;;;;;;;;4326878;33;20504;-67
2021/04/15 15:09:11;;;;;;;2.87;2.03;;;;;;;;;;4328531;33;20203;-69